Time;durP1;ratioP1;P1;durP2;ratioP2;P2;SDS_P1;SDS_P2;PMS_P1;PMS_P2;Temp;Humidity;BMP_temperature;BMP_pressure;BME280_temperature;BME280_humidity;BME280_pressure;Samples;Min_cycle;Max_cycle;Signal;HPM_P1;HPM_P2
2022/01/09 00:00:36;;;;;;;4.80;4.20;;;;;;;0.53;100.00;97590.59;5012886;28;20026;-72
2022/01/09 00:03:01;;;;;;;5.95;4.45;;;;;;;0.54;100.00;97579.19;5013030;28;20321;-72
2022/01/09 00:05:27;;;;;;;5.45;4.30;;;;;;;0.51;100.00;97576.69;5012928;28;20084;-72
2022/01/09 00:07:53;;;;;;;6.47;4.95;;;;;;;0.51;100.00;97579.31;5013006;28;20089;-72
2022/01/09 00:10:19;;;;;;;5.97;4.90;;;;;;;0.53;100.00;97569.59;5012911;28;20041;-72
2022/01/09 00:12:44;;;;;;;20.52;11.68;;;;;;;0.52;100.00;97567.88;5011766;28;20033;-72
2022/01/09 00:15:11;;;;;;;12.30;8.50;;;;;;;0.51;100.00;97571.44;5012859;28;20386;-72
2022/01/09 00:17:36;;;;;;;8.68;6.78;;;;;;;0.53;100.00;97563.47;5011550;28;20120;-72
2022/01/09 00:20:04;;;;;;;8.05;6.13;;;;;;;0.55;100.00;97559.91;5011363;28;20105;-72
2022/01/09 00:22:46;;;;;;;8.65;6.97;;;;;;;0.55;100.00;97554.66;5012774;28;20029;-72
2022/01/09 00:25:13;;;;;;;7.78;6.10;;;;;;;0.57;100.00;97545.88;5012540;28;20025;-72
2022/01/09 00:27:38;;;;;;;11.02;7.68;;;;;;;0.58;100.00;97550.19;5012554;28;20026;-72
2022/01/09 00:30:05;;;;;;;9.07;6.70;;;;;;;0.58;100.00;97548.44;5012374;28;20209;-72
2022/01/09 00:32:30;;;;;;;7.72;6.10;;;;;;;0.60;100.00;97543.13;5015859;28;20475;-72
2022/01/09 00:34:56;;;;;;;11.15;7.53;;;;;;;0.62;100.00;97536.06;5016353;28;20036;-72
2022/01/09 00:37:21;;;;;;;10.48;6.90;;;;;;;0.62;100.00;97541.31;5016221;28;20045;-72
2022/01/09 00:39:46;;;;;;;10.43;7.03;;;;;;;0.61;100.00;97535.19;5016215;28;20100;-72
2022/01/09 00:42:11;;;;;;;10.88;7.38;;;;;;;0.61;100.00;97536.97;5016481;28;20398;-72
2022/01/09 00:44:37;;;;;;;9.95;7.22;;;;;;;0.64;100.00;97526.38;5016248;28;20034;-72
2022/01/09 00:47:02;;;;;;;12.98;7.15;;;;;;;0.64;100.00;97518.47;5016518;28;20032;-72
2022/01/09 00:49:28;;;;;;;8.27;5.32;;;;;;;0.67;100.00;97507.88;5014746;28;20021;-72
2022/01/09 00:51:54;;;;;;;7.07;4.68;;;;;;;0.67;100.00;97510.50;5016140;28;20104;-72
2022/01/09 00:54:20;;;;;;;10.07;6.10;;;;;;;0.67;100.00;97505.25;5016208;28;20448;-72
2022/01/09 00:56:45;;;;;;;8.45;5.78;;;;;;;0.68;100.00;97508.72;5014759;28;20037;-72
2022/01/09 00:59:10;;;;;;;13.48;7.10;;;;;;;0.68;100.00;97498.22;5016070;28;20057;-72
2022/01/09 01:01:36;;;;;;;9.02;5.50;;;;;;;0.69;100.00;97490.28;5015907;28;20029;-72
2022/01/09 01:04:01;;;;;;;6.60;4.35;;;;;;;0.70;100.00;97492.00;5016006;28;20112;-72
2022/01/09 01:06:26;;;;;;;7.10;5.03;;;;;;;0.70;100.00;97489.34;5014761;28;20171;-72
2022/01/09 01:08:51;;;;;;;6.82;4.60;;;;;;;0.69;100.00;97490.28;5016289;28;20034;-72
2022/01/09 01:11:17;;;;;;;4.85;3.50;;;;;;;0.68;100.00;97478.06;5015596;28;20085;-72
2022/01/09 01:13:42;;;;;;;4.72;3.40;;;;;;;0.70;100.00;97485.88;5015625;28;20030;-72
2022/01/09 01:16:08;;;;;;;5.85;3.95;;;;;;;0.68;100.00;97482.44;5015507;28;20034;-72
2022/01/09 01:18:33;;;;;;;8.05;4.63;;;;;;;0.64;100.00;97477.31;5015569;28;20018;-72
2022/01/09 01:20:58;;;;;;;6.53;4.35;;;;;;;0.65;100.00;97476.41;5015630;28;20022;-72
2022/01/09 01:23:23;;;;;;;6.75;4.10;;;;;;;0.63;100.00;97477.34;5015499;28;20036;-72
2022/01/09 01:25:51;;;;;;;6.22;3.97;;;;;;;0.62;100.00;97478.28;5015440;28;20022;-72
2022/01/09 01:28:17;;;;;;;5.95;3.78;;;;;;;0.61;100.00;97469.53;5015440;28;20390;-73
2022/01/09 01:30:43;;;;;;;7.03;4.15;;;;;;;0.61;100.00;97468.69;5015420;28;20026;-73
2022/01/09 01:33:08;;;;;;;6.35;4.68;;;;;;;0.59;100.00;97465.25;5014229;28;20018;-72
2022/01/09 01:35:33;;;;;;;7.85;4.93;;;;;;;0.59;100.00;97462.63;5015768;28;20524;-72
2022/01/09 01:37:59;;;;;;;5.85;3.65;;;;;;;0.60;100.00;97466.94;5015480;28;20025;-74
2022/01/09 01:40:24;;;;;;;6.25;4.05;;;;;;;0.61;100.00;97471.31;5015209;28;20471;-72
2022/01/09 01:42:49;;;;;;;5.22;3.50;;;;;;;0.60;100.00;97457.31;5014382;28;20483;-72
2022/01/09 01:45:15;;;;;;;9.32;5.57;;;;;;;0.61;100.00;97458.19;5015289;28;20036;-73
2022/01/09 01:47:41;;;;;;;5.68;3.60;;;;;;;0.60;100.00;97459.94;5015376;28;20022;-72
2022/01/09 01:50:09;;;;;;;3.95;3.30;;;;;;;0.59;100.00;97457.38;5014461;28;20026;-72
2022/01/09 01:52:40;;;;;;;3.88;3.00;;;;;;;0.61;100.00;97466.06;5015083;28;20022;-72
2022/01/09 01:55:08;;;;;;;4.05;2.80;;;;;;;0.61;100.00;97466.06;5015351;28;20022;-72
2022/01/09 01:57:35;;;;;;;4.28;3.20;;;;;;;0.59;100.00;97462.63;5013665;28;20047;-72
2022/01/09 02:00:01;;;;;;;4.05;2.75;;;;;;;0.60;100.00;97465.19;5014781;28;20530;-72
2022/01/09 02:02:26;;;;;;;4.35;3.20;;;;;;;0.61;100.00;97455.56;5014871;28;20061;-72
2022/01/09 02:04:52;;;;;;;3.90;2.88;;;;;;;0.58;100.00;97455.66;5013553;28;20034;-72
2022/01/09 02:07:18;;;;;;;3.33;2.60;;;;;;;0.58;100.00;97447.78;5015070;28;20107;-72
2022/01/09 02:09:44;;;;;;;4.43;3.00;;;;;;;0.58;100.00;97455.66;5015284;28;20089;-72
2022/01/09 02:12:10;;;;;;;3.20;2.60;;;;;;;0.58;100.00;97455.66;5013430;28;20052;-73
2022/01/09 02:14:36;;;;;;;4.10;2.60;;;;;;;0.57;100.00;97441.66;5013300;28;20439;-72
2022/01/09 02:17:03;;;;;;;3.25;2.47;;;;;;;0.59;100.00;97442.50;5014660;28;20446;-73
2022/01/09 02:19:28;;;;;;;3.25;2.38;;;;;;;0.60;100.00;97444.19;5014397;28;20057;-73
2022/01/09 02:21:55;;;;;;;3.20;2.28;;;;;;;0.61;100.00;97442.41;5014440;28;20054;-72
2022/01/09 02:24:23;;;;;;;3.13;2.20;;;;;;;0.62;100.00;97441.53;5013151;28;20468;-73
2022/01/09 02:26:48;;;;;;;3.53;2.40;;;;;;;0.62;100.00;97446.78;5014412;28;20029;-72
2022/01/09 02:29:13;;;;;;;4.25;2.25;;;;;;;0.62;100.00;97441.53;5013071;28;20506;-73
2022/01/09 02:31:40;;;;;;;3.70;2.20;;;;;;;0.63;100.00;97443.22;5014438;28;20018;-73
2022/01/09 02:34:05;;;;;;;3.30;2.13;;;;;;;0.64;100.00;97445.81;5014072;28;20030;-72
2022/01/09 02:36:31;;;;;;;2.90;2.03;;;;;;;0.65;100.00;97447.50;5014358;28;20036;-73
2022/01/09 02:38:56;;;;;;;2.80;1.70;;;;;;;0.66;100.00;97438.72;5014057;28;20034;-73
2022/01/09 02:41:21;;;;;;;2.50;1.60;;;;;;;0.67;100.00;97444.84;5013818;28;20208;-73
2022/01/09 02:43:47;;;;;;;2.47;1.60;;;;;;;0.69;100.00;97443.00;5013910;28;20395;-72
2022/01/09 02:46:27;;;;;;;2.38;1.70;;;;;;;0.69;100.00;97448.25;5013905;28;20030;-72
2022/01/09 02:48:52;;;;;;;2.35;1.58;;;;;;;0.71;100.00;97451.69;5013983;28;20075;-72
2022/01/09 02:51:18;;;;;;;2.67;1.05;;;;;;;0.72;100.00;97444.69;5014052;28;20025;-72
2022/01/09 02:53:47;;;;;;;2.20;1.35;;;;;;;0.72;100.00;97442.88;5013789;28;20124;-72
2022/01/09 02:56:14;;;;;;;3.42;1.23;;;;;;;0.75;100.00;97452.41;5013753;28;20530;-72
2022/01/09 02:58:41;;;;;;;2.22;1.23;;;;;;;0.75;100.00;97450.66;5013759;28;20137;-72
2022/01/09 03:01:08;;;;;;;2.15;1.33;;;;;;;0.77;100.00;97455.88;5012275;28;20060;-73
2022/01/09 03:03:34;;;;;;;1.83;1.20;;;;;;;0.78;100.00;97457.56;5013636;28;20101;-73
2022/01/09 03:05:59;;;;;;;2.17;1.45;;;;;;;0.78;100.00;97463.69;5013439;28;20049;-72
2022/01/09 03:08:25;;;;;;;2.00;1.20;;;;;;;0.80;100.00;97461.00;5012129;28;20036;-73
2022/01/09 03:10:50;;;;;;;1.65;1.10;;;;;;;0.81;100.00;97464.47;5013359;28;20033;-72
2022/01/09 03:13:16;;;;;;;1.92;1.20;;;;;;;0.81;100.00;97462.72;5013372;28;20026;-72
2022/01/09 03:15:41;;;;;;;2.10;1.10;;;;;;;0.82;100.00;97469.69;5013229;28;20036;-72
2022/01/09 03:18:07;;;;;;;1.90;1.20;;;;;;;0.83;100.00;97474.03;5013592;28;20125;-73
2022/01/09 03:20:32;;;;;;;1.30;1.00;;;;;;;0.83;100.00;97467.91;5011844;28;20026;-72
2022/01/09 03:22:59;;;;;;;2.05;1.10;;;;;;;0.84;100.00;97472.25;5012042;28;20030;-72
2022/01/09 03:25:25;;;;;;;1.90;1.00;;;;;;;0.85;100.00;97474.00;5013449;28;20021;-73
2022/01/09 03:27:52;;;;;;;1.70;1.00;;;;;;;0.88;100.00;97479.97;5012013;28;20478;-72
2022/01/09 03:30:20;;;;;;;1.98;1.10;;;;;;;0.88;100.00;97479.09;5013416;28;20029;-72
2022/01/09 03:32:47;;;;;;;1.40;0.90;;;;;;;0.89;100.00;97480.84;5013433;28;20104;-73
2022/01/09 03:35:14;;;;;;;1.30;0.80;;;;;;;0.91;100.00;97479.00;5013362;28;20021;-73
2022/01/09 03:37:41;;;;;;;1.17;0.73;;;;;;;0.92;100.00;97486.00;5013655;28;20034;-73
2022/01/09 03:40:10;;;;;;;1.42;0.88;;;;;;;0.93;100.00;97487.69;5013093;28;20028;-72
2022/01/09 03:42:35;;;;;;;1.73;1.05;;;;;;;0.93;100.00;97489.47;5011844;28;20160;-72
2022/01/09 03:45:01;;;;;;;3.90;0.95;;;;;;;0.94;100.00;97488.56;5013131;28;20057;-73
2022/01/09 03:47:26;;;;;;;1.30;0.80;;;;;;;0.93;100.00;97481.59;5012076;28;20026;-73
2022/01/09 03:49:52;;;;;;;1.27;0.80;;;;;;;0.98;100.00;97491.00;5013356;28;20030;-72
2022/01/09 03:52:17;;;;;;;1.27;0.70;;;;;;;0.96;100.00;97487.59;5011792;28;20022;-73
2022/01/09 03:54:43;;;;;;;0.88;0.60;;;;;;;0.98;100.00;97491.00;5013049;28;20387;-72
2022/01/09 03:57:08;;;;;;;1.25;0.75;;;;;;;1.01;100.00;97497.91;5011739;28;20017;-73
2022/01/09 03:59:33;;;;;;;2.30;0.82;;;;;;;1.02;100.00;97488.28;5013307;28;20105;-72
2022/01/09 04:02:00;;;;;;;1.20;0.80;;;;;;;1.06;100.00;97495.13;5013377;28;20033;-73
2022/01/09 04:04:25;;;;;;;2.28;0.93;;;;;;;1.04;100.00;97494.31;5011566;28;20033;-73
2022/01/09 04:06:51;;;;;;;1.08;0.70;;;;;;;1.09;100.00;97502.91;5012320;28;20026;-73
2022/01/09 04:09:27;;;;;;;1.63;0.90;;;;;;;1.03;100.00;97503.97;5011600;28;20036;-73
2022/01/09 04:11:56;;;;;;;2.05;1.17;;;;;;;1.02;100.00;97504.03;5012827;28;20018;-73
2022/01/09 04:14:21;;;;;;;3.67;1.55;;;;;;;0.98;100.00;97501.50;5011359;28;20033;-73
2022/01/09 04:16:46;;;;;;;2.65;1.70;;;;;;;1.00;100.00;97509.38;5012970;28;20383;-73
2022/01/09 04:19:13;;;;;;;3.00;1.80;;;;;;;1.02;100.00;97511.94;5012577;28;20391;-73
2022/01/09 04:21:42;;;;;;;2.35;1.80;;;;;;;0.96;100.00;97521.75;5012385;28;20022;-73
2022/01/09 04:24:08;;;;;;;2.88;1.98;;;;;;;0.95;100.00;97521.81;5012788;28;20057;-73
2022/01/09 04:26:34;;;;;;;3.42;2.30;;;;;;;0.95;100.00;97516.56;5012483;28;20032;-73
2022/01/09 04:28:59;;;;;;;3.40;2.35;;;;;;;0.99;100.00;97529.53;5012478;28;20101;-73
2022/01/09 04:31:24;;;;;;;3.60;2.10;;;;;;;1.00;100.00;97539.13;5012384;28;20112;-74
2022/01/09 04:33:50;;;;;;;3.53;2.45;;;;;;;0.99;100.00;97537.41;5012562;28;20041;-73
2022/01/09 04:36:15;;;;;;;4.00;2.70;;;;;;;0.96;100.00;97540.13;5012848;28;20022;-73
2022/01/09 04:38:40;;;;;;;3.65;2.35;;;;;;;0.95;100.00;97543.69;5011044;28;20049;-73
2022/01/09 04:41:05;;;;;;;3.60;2.50;;;;;;;0.94;100.00;97547.22;5012276;28;20026;-73
2022/01/09 04:43:31;;;;;;;4.55;2.70;;;;;;;0.97;100.00;97546.25;5011019;28;20022;-73
2022/01/09 04:45:56;;;;;;;3.90;2.72;;;;;;;1.05;100.00;97548.63;5012340;28;20060;-73
2022/01/09 04:48:21;;;;;;;3.42;2.65;;;;;;;1.02;100.00;97548.72;5012531;28;20479;-73
2022/01/09 04:50:47;;;;;;;3.30;2.60;;;;;;;0.99;100.00;97547.91;5012456;28;20030;-73
2022/01/09 04:53:12;;;;;;;3.47;2.63;;;;;;;1.02;100.00;97559.22;5012553;28;20120;-73
2022/01/09 04:55:41;;;;;;;3.83;2.97;;;;;;;1.04;100.00;97562.66;5011325;28;20565;-72
2022/01/09 04:58:07;;;;;;;3.95;3.15;;;;;;;0.98;100.00;97564.59;5012308;28;20029;-72
2022/01/09 05:00:33;;;;;;;4.57;3.00;;;;;;;1.16;100.00;97567.47;5012063;28;20025;-73
2022/01/09 05:02:58;;;;;;;3.83;3.20;;;;;;;0.99;100.00;97575.97;5012198;28;20030;-73
2022/01/09 05:05:24;;;;;;;3.63;2.90;;;;;;;1.05;100.00;97585.41;5010834;28;20139;-73
2022/01/09 05:07:49;;;;;;;4.15;2.97;;;;;;;0.97;100.00;97589.16;5012170;28;20418;-73
2022/01/09 05:10:15;;;;;;;4.25;3.03;;;;;;;0.96;100.00;97586.56;5012035;28;20042;-73
2022/01/09 05:12:40;;;;;;;3.65;2.90;;;;;;;0.93;100.00;97592.78;5012357;28;20375;-72
2022/01/09 05:15:07;;;;;;;3.45;2.88;;;;;;;0.91;100.00;97594.63;5032086;22;20123;-76
2022/01/09 05:17:33;;;;;;;4.82;2.90;;;;;;;0.91;100.00;97605.13;4995555;28;20125;-76
2022/01/09 05:19:58;;;;;;;4.25;3.25;;;;;;;0.90;100.00;97603.44;5000709;28;20542;-76
2022/01/09 05:22:30;;;;;;;3.92;3.10;;;;;;;0.97;100.00;97607.56;5016648;28;20034;-76
2022/01/09 05:24:58;;;;;;;3.92;2.88;;;;;;;0.97;100.00;97612.81;5016388;28;20029;-77
2022/01/09 05:27:25;;;;;;;4.03;3.03;;;;;;;0.85;100.00;97610.59;5016070;28;20032;-77
2022/01/09 05:29:51;;;;;;;4.25;3.10;;;;;;;0.83;100.00;97617.66;5016191;28;20103;-76
2022/01/09 05:32:16;;;;;;;5.60;3.50;;;;;;;0.74;100.00;97622.34;5016524;28;20049;-76
2022/01/09 05:34:41;;;;;;;5.65;3.25;;;;;;;0.75;100.00;97623.16;5015901;28;20172;-76
2022/01/09 05:37:06;;;;;;;4.65;3.08;;;;;;;0.93;100.00;97634.84;5014740;28;20034;-76
2022/01/09 05:39:33;;;;;;;4.63;2.92;;;;;;;0.85;100.00;97642.97;5016328;28;20451;-76
2022/01/09 05:41:59;;;;;;;5.90;3.97;;;;;;;0.78;100.00;97647.56;5015881;28;20068;-76
2022/01/09 05:44:24;;;;;;;5.20;3.67;;;;;;;0.77;100.00;97651.09;5014533;28;20033;-77
2022/01/09 05:46:50;;;;;;;5.15;3.63;;;;;;;0.96;100.00;97655.75;5016244;28;20022;-77
2022/01/09 05:49:15;;;;;;;5.65;3.33;;;;;;;0.90;100.00;97666.50;5014941;28;20117;-77
2022/01/09 05:51:41;;;;;;;5.70;3.90;;;;;;;0.82;100.00;97664.13;5015590;28;20021;-77
2022/01/09 05:54:06;;;;;;;6.50;3.58;;;;;;;0.72;100.00;97668.78;5015937;28;20391;-76
2022/01/09 05:56:31;;;;;;;8.15;4.15;;;;;;;0.75;100.00;97675.69;5014307;28;20060;-77
2022/01/09 05:58:57;;;;;;;4.97;3.25;;;;;;;0.86;100.00;97675.38;5015741;28;20364;-77
2022/01/09 06:01:22;;;;;;;5.75;4.07;;;;;;;0.74;100.00;97682.75;5015549;28;20018;-77
2022/01/09 06:03:47;;;;;;;6.60;4.50;;;;;;;0.70;100.00;97694.25;5015519;28;20084;-77
2022/01/09 06:06:13;;;;;;;7.07;4.50;;;;;;;0.69;100.00;97689.06;5014083;28;20024;-77
2022/01/09 06:08:38;;;;;;;7.38;4.43;;;;;;;0.79;100.00;97682.59;5013967;28;20032;-77
2022/01/09 06:11:03;;;;;;;7.38;4.63;;;;;;;0.94;100.00;97691.75;5015130;28;20029;-77
2022/01/09 06:13:28;;;;;;;6.93;3.97;;;;;;;0.85;100.00;97703.41;5013971;28;20029;-77
2022/01/09 06:15:54;;;;;;;7.50;4.20;;;;;;;0.97;100.00;97710.03;5014969;28;20052;-77
2022/01/09 06:18:20;;;;;;;8.50;5.10;;;;;;;0.92;100.00;97709.34;5015121;28;20108;-77
2022/01/09 06:20:47;;;;;;;7.53;5.03;;;;;;;0.98;100.00;97722.25;5015034;28;20028;-77
2022/01/09 06:23:12;;;;;;;7.93;5.05;;;;;;;0.95;100.00;97718.88;5015081;28;20034;-77
2022/01/09 06:25:38;;;;;;;10.13;6.63;;;;;;;0.97;100.00;97725.81;5015095;28;20025;-77
2022/01/09 06:28:03;;;;;;;10.90;6.40;;;;;;;1.04;100.00;97733.47;5015119;28;20026;-77
2022/01/09 06:30:29;;;;;;;10.95;6.70;;;;;;;0.99;100.00;97729.25;5014861;28;20052;-78
2022/01/09 06:32:54;;;;;;;9.32;6.10;;;;;;;1.00;100.00;97741.50;5017159;28;20085;-78
2022/01/09 06:35:19;;;;;;;11.10;7.30;;;;;;;1.03;100.00;97739.66;5017804;28;20022;-77
2022/01/09 06:37:44;;;;;;;12.65;7.10;;;;;;;1.12;100.00;97747.25;5018391;28;20112;-78
2022/01/09 06:40:10;;;;;;;12.07;6.70;;;;;;;1.09;100.00;97755.22;5013997;28;20021;-77
2022/01/09 06:42:35;;;;;;;11.68;6.90;;;;;;;1.08;100.00;97764.03;5015500;28;20057;-77
2022/01/09 06:45:01;;;;;;;11.35;7.25;;;;;;;1.10;100.00;97762.22;5015090;28;20054;-77
2022/01/09 06:47:26;;;;;;;13.93;7.95;;;;;;;1.15;100.00;97765.56;5013457;28;20025;-77
2022/01/09 06:49:52;;;;;;;14.30;7.88;;;;;;;1.17;100.00;97774.25;5014691;28;20056;-77
2022/01/09 06:52:17;;;;;;;15.43;7.65;;;;;;;1.24;100.00;97779.31;5015213;28;20033;-77
2022/01/09 06:54:42;;;;;;;15.77;8.55;;;;;;;1.32;100.00;97782.53;5015320;28;20018;-77
2022/01/09 06:57:07;;;;;;;17.58;8.38;;;;;;;1.38;100.00;97781.47;5014397;28;20029;-77
2022/01/09 06:59:33;;;;;;;15.52;9.00;;;;;;;1.38;100.00;97798.13;5017473;28;20470;-78
2022/01/09 07:01:58;;;;;;;18.35;9.10;;;;;;;1.39;100.00;97805.09;5014765;28;20026;-77
2022/01/09 07:04:24;;;;;;;16.77;9.15;;;;;;;1.45;100.00;97804.91;5014996;28;20080;-76
2022/01/09 07:06:49;;;;;;;17.88;9.45;;;;;;;1.51;100.00;97806.47;5014228;28;20018;-76
2022/01/09 07:09:14;;;;;;;17.17;9.20;;;;;;;1.57;100.00;97813.31;5013065;28;20037;-76
2022/01/09 07:11:40;;;;;;;18.15;9.23;;;;;;;1.58;100.00;97812.38;5014079;28;20025;-76
2022/01/09 07:14:05;;;;;;;22.98;11.82;;;;;;;1.63;100.00;97826.25;5012885;28;20025;-76
2022/01/09 07:16:30;;;;;;;22.02;11.40;;;;;;;1.71;100.00;97830.38;5014120;28;20033;-76
2022/01/09 07:18:55;;;;;;;21.77;11.50;;;;;;;1.69;100.00;97826.94;5013312;28;20072;-77
2022/01/09 07:21:21;;;;;;;23.95;10.75;;;;;;;1.69;100.00;97824.31;5013971;28;20030;-77
2022/01/09 07:23:46;;;;;;;19.38;10.77;;;;;;;1.75;100.00;97830.22;5015181;28;20037;-77
2022/01/09 07:26:11;;;;;;;21.98;10.57;;;;;;;1.88;100.00;97837.72;5014792;28;20172;-77
2022/01/09 07:28:37;;;;;;;26.23;10.32;;;;;;;1.99;100.00;97843.47;5015862;28;20394;-78
2022/01/09 07:31:02;;;;;;;25.65;9.60;;;;;;;2.14;100.00;97843.00;5013367;28;20083;-77
2022/01/09 07:33:28;;;;;;;28.88;10.32;;;;;;;2.15;100.00;97844.69;5015108;28;20072;-77
2022/01/09 07:35:54;;;;;;;22.75;9.68;;;;;;;2.30;100.00;97852.06;5020282;28;20093;-78
2022/01/09 07:38:19;;;;;;;29.20;9.23;;;;;;;2.27;100.00;97856.59;5020524;28;20018;-78
2022/01/09 07:40:47;;;;;;;30.02;9.60;;;;;;;2.28;100.00;97856.53;5019344;28;20109;-78
2022/01/09 07:43:12;;;;;;;23.17;9.73;;;;;;;2.32;100.00;97860.75;5019679;28;20033;-78
2022/01/09 07:45:39;;;;;;;26.75;8.75;;;;;;;2.32;100.00;97867.84;5021422;28;20076;-78
2022/01/09 07:48:04;;;;;;;25.20;8.00;;;;;;;2.40;100.00;97875.44;5019299;28;20021;-78
2022/01/09 07:50:30;;;;;;;34.50;7.43;;;;;;;2.63;100.00;97881.69;5018860;28;20398;-77
2022/01/09 07:52:55;;;;;;;30.05;6.95;;;;;;;2.74;100.00;97889.16;5019130;28;20029;-79
2022/01/09 07:55:22;;;;;;;35.28;6.40;;;;;;;2.80;100.00;97894.22;5021486;28;20021;-78
2022/01/09 07:57:48;;;;;;;25.83;5.30;;;;;;;2.93;100.00;97905.19;5020297;28;20026;-78
2022/01/09 08:00:14;;;;;;;33.58;6.32;;;;;;;2.99;100.00;97904.09;5020012;28;20076;-78
2022/01/09 08:02:40;;;;;;;31.60;6.32;;;;;;;3.05;100.00;97922.31;5017758;28;20026;-77
2022/01/09 08:05:06;;;;;;;25.17;5.10;;;;;;;3.08;100.00;97929.25;5019115;28;20026;-77
2022/01/09 08:07:32;;;;;;;23.70;4.65;;;;;;;3.15;100.00;97925.44;5018998;28;20022;-78
2022/01/09 08:09:57;;;;;;;21.75;4.43;;;;;;;3.18;100.00;97935.88;5020166;28;20025;-78
2022/01/09 08:12:22;;;;;;;23.40;4.50;;;;;;;3.24;100.00;97938.31;5018585;28;20034;-78
2022/01/09 08:14:47;;;;;;;32.85;4.68;;;;;;;3.31;100.00;97943.34;5018782;28;20030;-78
2022/01/09 08:17:13;;;;;;;26.75;4.95;;;;;;;3.34;100.00;97940.59;5020145;28;20088;-78
2022/01/09 08:19:39;;;;;;;26.67;5.80;;;;;;;3.32;100.00;97947.69;5019321;28;20030;-78
2022/01/09 08:22:06;;;;;;;29.38;4.82;;;;;;;3.33;100.00;97949.41;5020697;28;20018;-78
2022/01/09 08:24:33;;;;;;;25.30;4.95;;;;;;;3.33;100.00;97957.31;5019481;28;20029;-77
2022/01/09 08:26:58;;;;;;;18.92;4.40;;;;;;;3.36;100.00;97975.69;5020985;28;20509;-78
2022/01/09 08:29:24;;;;;;;23.27;4.53;;;;;;;3.43;100.00;97971.88;5021099;28;20089;-78
2022/01/09 08:31:49;;;;;;;21.42;5.63;;;;;;;3.40;100.00;97972.00;5017797;28;20026;-77
2022/01/09 08:34:15;;;;;;;18.75;4.07;;;;;;;3.36;100.00;97965.13;5013365;28;20028;-77
2022/01/09 08:36:40;;;;;;;19.63;3.85;;;;;;;3.35;100.00;97979.25;5013230;28;20057;-77
2022/01/09 08:39:06;;;;;;;23.40;4.22;;;;;;;3.38;100.00;97989.66;5013461;28;20048;-77
2022/01/09 08:41:32;;;;;;;17.77;3.67;;;;;;;3.37;100.00;97987.97;5013160;28;20017;-77
2022/01/09 08:43:58;;;;;;;17.83;3.72;;;;;;;3.39;100.00;97996.66;5012272;28;20394;-77
2022/01/09 08:46:23;;;;;;;15.27;3.97;;;;;;;3.35;100.00;98005.63;5012583;28;20570;-77
2022/01/09 08:48:49;;;;;;;19.13;3.80;;;;;;;3.41;100.00;98005.38;5013042;28;20518;-77
2022/01/09 08:51:14;;;;;;;17.90;3.70;;;;;;;3.37;100.00;98014.34;5012891;28;20018;-77
2022/01/09 08:53:41;;;;;;;21.17;3.75;;;;;;;3.40;100.00;98019.47;5017249;28;20022;-78
2022/01/09 08:56:06;;;;;;;23.88;4.10;;;;;;;3.38;100.00;98026.59;5016587;28;20022;-77
2022/01/09 08:58:32;;;;;;;16.65;3.25;;;;;;;3.41;100.00;98029.13;5016007;28;20026;-78
2022/01/09 09:00:58;;;;;;;16.80;3.88;;;;;;;3.35;100.00;98032.00;5016855;28;20017;-77
2022/01/09 09:03:23;;;;;;;18.02;3.85;;;;;;;3.27;100.00;98034.06;5017163;28;20398;-77
2022/01/09 09:05:49;;;;;;;16.83;4.07;;;;;;;3.30;100.00;98039.22;5015473;28;20034;-77
2022/01/09 09:08:14;;;;;;;15.48;3.97;;;;;;;3.26;100.00;98050.78;5016421;28;20467;-77
2022/01/09 09:10:39;;;;;;;19.30;3.38;;;;;;;3.32;100.00;98069.03;5016302;28;20021;-77
2022/01/09 09:13:05;;;;;;;16.15;3.97;;;;;;;3.29;100.00;98064.75;5016393;28;20033;-77
2022/01/09 09:15:30;;;;;;;20.70;3.50;;;;;;;3.29;100.00;98070.03;5016185;28;20402;-77
2022/01/09 09:17:55;;;;;;;15.65;3.65;;;;;;;3.30;100.00;98076.16;5016361;28;20092;-77
2022/01/09 09:20:22;;;;;;;17.45;3.60;;;;;;;3.28;100.00;98088.53;5014888;28;20068;-77
2022/01/09 09:22:47;;;;;;;14.88;4.05;;;;;;;3.32;100.00;98093.66;5016161;28;20030;-77
2022/01/09 09:25:13;;;;;;;15.77;3.60;;;;;;;3.30;100.00;98097.25;5016367;28;20022;-77
2022/01/09 09:27:39;;;;;;;16.58;3.63;;;;;;;3.34;100.00;98106.78;5014822;28;20026;-77
2022/01/09 09:30:06;;;;;;;13.23;2.90;;;;;;;3.31;100.00;98110.38;5014702;28;20018;-77
2022/01/09 09:32:31;;;;;;;14.07;3.10;;;;;;;3.35;100.00;98116.44;5015941;28;20026;-77
2022/01/09 09:34:57;;;;;;;14.43;3.28;;;;;;;3.32;100.00;98127.09;5014677;28;20040;-77
2022/01/09 09:37:23;;;;;;;13.82;3.13;;;;;;;3.27;100.00;98123.75;5016655;28;20029;-78
2022/01/09 09:39:51;;;;;;;18.50;3.40;;;;;;;3.36;100.00;98131.31;5015856;28;20025;-77
2022/01/09 09:42:17;;;;;;;14.52;2.83;;;;;;;3.44;100.00;98131.94;5016374;28;20032;-77
2022/01/09 09:44:42;;;;;;;12.70;3.20;;;;;;;3.38;100.00;98136.53;5015359;28;20033;-77
2022/01/09 09:47:10;;;;;;;13.43;3.00;;;;;;;3.35;100.00;98148.09;5015810;28;20033;-77
2022/01/09 09:49:35;;;;;;;16.67;3.00;;;;;;;3.31;100.00;98157.00;5016066;28;20557;-77
2022/01/09 09:52:00;;;;;;;13.50;3.10;;;;;;;3.33;100.00;98160.44;5016281;28;20026;-77
2022/01/09 09:54:25;;;;;;;13.75;3.15;;;;;;;3.37;100.00;98167.34;5015949;28;20028;-77
2022/01/09 09:56:52;;;;;;;12.60;2.30;;;;;;;3.40;100.00;98167.22;5015522;28;20030;-77
2022/01/09 09:59:34;;;;;;;9.35;2.72;;;;;;;3.39;100.00;98164.66;5014245;28;20022;-77
2022/01/09 10:01:59;;;;;;;11.75;2.30;;;;;;;3.43;100.00;98169.75;5014268;28;20021;-77
2022/01/09 10:04:25;;;;;;;12.48;2.83;;;;;;;3.48;100.00;98179.31;5013315;28;20025;-77
2022/01/09 10:06:50;;;;;;;11.70;2.58;;;;;;;3.52;100.00;98175.66;5015351;28;20440;-77
2022/01/09 10:09:21;;;;;;;14.55;2.63;;;;;;;3.50;100.00;98185.41;5014012;28;20018;-77
2022/01/09 10:11:51;;;;;;;10.32;2.70;;;;;;;3.46;100.00;98196.06;5015444;28;20085;-77
2022/01/09 10:14:34;;;;;;;14.68;2.90;;;;;;;3.46;100.00;98188.13;5015198;28;20021;-77
2022/01/09 10:17:16;;;;;;;15.52;3.00;;;;;;;3.48;100.00;98198.63;5015164;28;20395;-77
2022/01/09 10:20:08;;;;;;;11.43;2.80;;;;;;;3.52;100.00;98202.03;5013896;28;20042;-76
2022/01/09 10:22:36;;;;;;;9.95;2.58;;;;;;;3.57;100.00;98208.00;5013790;28;20033;-76
2022/01/09 10:25:30;;;;;;;16.67;3.00;;;;;;;3.49;100.00;98210.06;5013733;28;20505;-76
2022/01/09 10:28:09;;;;;;;;;;;;;;;3.51;100.00;98221.41;5014106;28;20049;-77
2022/01/09 10:30:41;;;;;;;17.60;3.30;;;;;;;3.58;100.00;98226.41;5014938;28;19917;-77
2022/01/09 10:33:10;;;;;;;13.07;3.00;;;;;;;3.61;100.00;98233.38;5015150;28;20034;-77
2022/01/09 10:35:38;;;;;;;11.00;2.63;;;;;;;3.61;100.00;98233.38;5014797;28;20022;-77
2022/01/09 10:38:07;;;;;;;11.93;3.63;;;;;;;3.56;100.00;98227.38;5014778;28;20044;-77
2022/01/09 10:40:36;;;;;;;19.02;3.17;;;;;;;3.54;100.00;98240.66;5014881;28;20029;-77
2022/01/09 10:43:04;;;;;;;13.25;2.88;;;;;;;3.55;100.00;98238.88;5013471;28;20053;-77
2022/01/09 10:45:31;;;;;;;12.30;3.28;;;;;;;3.54;100.00;98250.34;5014884;28;20057;-77
2022/01/09 10:48:06;;;;;;;11.73;3.13;;;;;;;3.53;100.00;98251.28;5014828;28;20104;-77
2022/01/09 10:50:35;;;;;;;11.65;2.78;;;;;;;3.53;100.00;98253.91;5014476;28;20021;-77
2022/01/09 10:53:29;;;;;;;14.63;3.75;;;;;;;3.46;100.00;98272.56;5014525;28;20021;-77
2022/01/09 10:56:00;;;;;;;;;;;;;;;3.51;100.00;98253.94;5014946;28;20410;-76
2022/01/09 10:58:27;;;;;;;14.07;3.53;;;;;;;3.48;100.00;98269.03;5014343;28;19916;-76
2022/01/09 11:01:14;;;;;;;9.32;3.60;;;;;;;3.39;100.00;98271.06;5014465;28;20601;-77
2022/01/09 11:03:46;;;;;;;14.38;3.65;;;;;;;3.48;100.00;98275.16;5004603;28;20561;-77
2022/01/09 11:06:12;;;;;;;13.23;3.50;;;;;;;3.51;100.00;98284.75;5014293;28;20053;-77
2022/01/09 11:08:39;;;;;;;13.43;3.38;;;;;;;3.35;100.00;98272.91;5014273;28;20076;-77
2022/01/09 11:11:12;;;;;;;14.50;3.83;;;;;;;3.33;100.00;98282.66;5014676;28;20383;-77
2022/01/09 11:13:42;;;;;;;15.05;4.40;;;;;;;3.33;100.00;98287.06;5014441;28;20030;-77
2022/01/09 11:16:35;;;;;;;9.82;3.63;;;;;;;3.44;100.00;98295.53;5038279;22;20050;-86
2022/01/09 11:19:26;;;;;;;12.27;3.25;;;;;;;3.42;100.00;98296.47;5000254;28;20037;-87
2022/01/09 11:22:03;;;;;;;16.02;3.97;;;;;;;3.40;100.00;98319.41;5021932;28;20026;-87
2022/01/09 11:25:09;;;;;;;11.60;3.50;;;;;;;3.31;100.00;98310.88;5000082;28;20103;-89
2022/01/09 11:27:50;;;;;;;13.00;3.08;;;;;;;3.41;100.00;98306.16;4980114;28;20027;-86
2022/01/09 11:31:03;;;;;;;;;;;;;;;;;;;;;